Airport View

Enter AWOS ICAO identifier for current METAR.

ex. KFNL

KBIV 051253Z AUTO 18004KT 10SM CLR 17/12 A3012 RMK AO2 SLP197 T01670117

5 Aug 2020 13:54

Frequency: 119.025

Phone: 616-394-0190

Other Area AWOS: KLWA - KMKG - KGRR - K8D4

TAF KMKG 051130Z 0512/0612 00000KT P6SM SKC FM051400 26012KT P6SM SCT040 FM051800 27007KT P6SM SKC FM060100 25004KT P6SM SKC